createdAt,value
2023-05-23T00:00:52.240Z,69024.25
2023-05-23T00:03:25.550Z,69017.44
2023-05-23T00:06:08.216Z,68994.81
2023-05-23T00:08:44.438Z,68987.06
2023-05-23T00:11:17.290Z,68988.78
2023-05-23T00:13:46.551Z,68992.38
2023-05-23T00:16:13.671Z,68998.63
2023-05-23T00:18:45.764Z,69015.31
2023-05-23T00:21:18.328Z,69021.06
2023-05-23T00:23:45.447Z,69016.13
2023-05-23T00:26:13.444Z,69008.88
2023-05-23T00:28:45.949Z,69009.66
2023-05-23T00:31:13.062Z,68985.94
2023-05-23T00:33:40.164Z,68960.47
2023-05-23T00:36:07.542Z,68923.28
2023-05-23T00:38:37.770Z,68897.69
2023-05-23T00:41:06.290Z,68903.00
2023-05-23T00:43:33.452Z,68905.06
2023-05-23T00:46:00.996Z,68889.34
2023-05-23T00:48:29.389Z,68882.09
2023-05-23T00:50:57.843Z,68868.28
2023-05-23T00:53:25.690Z,68867.53
2023-05-23T00:55:53.013Z,68855.38
2023-05-23T00:58:20.558Z,68857.47
2023-05-23T01:00:50.394Z,68842.69
2023-05-23T01:03:18.524Z,68833.00
2023-05-23T01:05:46.069Z,68821.63
2023-05-23T01:08:15.633Z,68815.94
2023-05-23T01:10:43.054Z,68810.44
2023-05-23T01:13:20.648Z,68821.06
2023-05-23T01:16:09.384Z,68811.41
2023-05-23T01:18:59.258Z,68801.91
2023-05-23T01:21:27.362Z,68790.91
2023-05-23T01:24:22.177Z,68789.59
2023-05-23T01:27:46.134Z,68781.22
2023-05-23T01:30:13.689Z,68789.59
2023-05-23T01:32:42.173Z,68792.03
2023-05-23T01:35:11.016Z,68796.03
2023-05-23T01:37:38.187Z,68803.22
2023-05-23T01:40:05.965Z,68817.25
2023-05-23T01:42:33.147Z,68819.94
2023-05-23T01:45:00.568Z,68820.47
2023-05-23T01:47:27.875Z,68820.09
2023-05-23T01:49:57.067Z,68825.63
2023-05-23T01:52:25.210Z,68813.09
2023-05-23T01:54:53.130Z,68801.34
2023-05-23T01:57:21.422Z,68786.72
2023-05-23T01:59:50.406Z,68804.56
2023-05-23T02:02:18.072Z,68808.16
2023-05-23T02:04:45.458Z,68808.75
2023-05-23T02:07:12.875Z,68800.00
2023-05-23T02:09:40.138Z,68789.75
2023-05-23T02:12:07.710Z,68780.84
2023-05-23T02:14:34.933Z,68778.00
2023-05-23T02:17:02.171Z,68773.84
2023-05-23T02:19:30.237Z,68772.53
2023-05-23T02:21:57.444Z,68779.34
2023-05-23T02:24:24.981Z,68782.38
2023-05-23T02:26:52.903Z,68772.31
2023-05-23T02:29:20.079Z,68777.81
2023-05-23T02:31:47.325Z,68771.00
2023-05-23T02:34:16.197Z,68776.69
2023-05-23T02:36:44.409Z,68776.88
2023-05-23T02:39:11.570Z,68770.41
2023-05-23T02:41:38.906Z,68768.72
2023-05-23T02:44:06.444Z,68773.09
2023-05-23T02:46:34.925Z,68769.84
2023-05-23T02:57:53.691Z,68747.09
2023-05-23T03:00:24.180Z,68744.84
2023-05-23T03:03:02.090Z,68738.19
2023-05-23T03:05:32.472Z,68735.94
2023-05-23T03:08:00.411Z,68737.44
2023-05-23T03:10:27.990Z,68727.97
2023-05-23T03:12:56.019Z,68735.19
2023-05-23T03:15:23.309Z,68728.94
2023-05-23T03:17:50.909Z,68722.28
2023-05-23T03:20:18.183Z,68725.72
2023-05-23T03:22:45.911Z,68735.38
2023-05-23T03:25:14.808Z,68742.97
2023-05-23T03:27:41.983Z,68736.88
2023-05-23T03:30:11.080Z,68734.63
2023-05-23T03:32:40.647Z,68750.91
2023-05-23T03:35:08.902Z,68742.19
2023-05-23T03:37:36.142Z,68739.75
2023-05-23T03:40:03.884Z,68743.88
2023-05-23T03:42:33.927Z,68747.50
2023-05-23T03:45:02.252Z,68744.28
2023-05-23T03:47:29.574Z,68745.22
2023-05-23T03:49:58.962Z,68746.00
2023-05-23T03:52:27.769Z,68756.03
2023-05-23T03:54:54.980Z,68763.59
2023-05-23T03:57:22.985Z,68760.38
2023-05-23T03:59:52.089Z,68765.13
2023-05-23T04:02:20.696Z,68765.50
2023-05-23T04:04:48.002Z,68771.00
2023-05-23T04:07:16.301Z,68771.19
2023-05-23T04:09:44.623Z,68778.78
2023-05-23T04:12:13.524Z,68780.28
2023-05-23T04:14:40.884Z,68792.41
2023-05-23T04:17:09.243Z,68797.16
2023-05-23T04:19:37.139Z,68803.06
2023-05-23T04:22:07.667Z,68796.75
2023-05-23T04:24:35.821Z,68791.66
2023-05-23T04:27:03.150Z,68792.59
2023-05-23T04:29:31.776Z,68793.56
2023-05-23T04:32:25.403Z,68785.78
2023-05-23T04:34:53.547Z,68787.47
2023-05-23T04:37:26.717Z,68788.25
2023-05-23T04:39:54.584Z,68786.53
2023-05-23T04:42:31.315Z,68789.03
2023-05-23T04:45:30.855Z,68793.00
2023-05-23T04:48:04.499Z,68789.75
2023-05-23T04:50:43.673Z,68788.06
2023-05-23T04:53:11.033Z,68782.75
2023-05-23T04:55:39.323Z,68792.78
2023-05-23T04:58:13.074Z,68798.84
2023-05-23T05:00:40.464Z,68809.88
2023-05-23T05:03:09.917Z,68804.19
2023-05-23T05:05:41.040Z,68808.16
2023-05-23T05:08:08.200Z,68806.06
2023-05-23T05:10:36.142Z,68814.22
2023-05-23T05:13:03.249Z,68821.06
2023-05-23T05:15:37.999Z,68827.88
2023-05-23T05:18:05.279Z,68828.06
2023-05-23T05:20:32.542Z,68827.69
2023-05-23T05:23:02.911Z,68830.16
2023-05-23T05:25:32.323Z,68830.34
2023-05-23T05:28:05.953Z,68833.19
2023-05-23T05:30:40.584Z,68837.00
2023-05-23T05:33:08.227Z,68840.97
2023-05-23T05:35:35.765Z,68844.00
2023-05-23T05:38:05.041Z,68850.25
2023-05-23T05:40:32.709Z,68851.97
2023-05-23T05:43:00.731Z,68868.66
2023-05-23T05:45:29.210Z,68871.31
2023-05-23T05:47:56.834Z,68887.63
2023-05-23T05:50:25.476Z,68914.94
2023-05-23T05:52:52.887Z,68964.47
2023-05-23T05:55:20.844Z,68983.81
2023-05-23T05:57:52.416Z,69002.78
2023-05-23T06:00:20.266Z,69047.03
2023-05-23T06:02:47.825Z,69076.88
2023-05-23T06:05:20.552Z,69078.56
2023-05-23T06:07:49.951Z,69055.19
2023-05-23T06:10:17.312Z,69013.44
2023-05-23T06:12:45.945Z,68970.91
2023-05-23T06:15:14.713Z,68947.41
2023-05-23T06:17:43.012Z,68944.16
2023-05-23T06:20:11.546Z,68935.44
2023-05-23T06:22:42.709Z,68911.31
2023-05-23T06:25:09.988Z,68916.47
2023-05-23T06:27:38.186Z,68910.19
2023-05-23T06:30:06.209Z,68910.94
2023-05-23T06:32:33.734Z,68913.22
2023-05-23T06:35:00.854Z,68914.38
2023-05-23T06:37:27.950Z,68914.38
2023-05-23T06:39:56.848Z,68914.38
2023-05-23T06:42:23.943Z,68907.19
2023-05-23T06:45:10.788Z,68898.81
2023-05-23T06:47:38.439Z,68896.16
2023-05-23T06:50:06.173Z,68903.16
2023-05-23T06:52:33.854Z,68948.94
2023-05-23T06:55:01.017Z,68994.25
2023-05-23T06:57:28.158Z,68993.34
2023-05-23T06:59:55.337Z,69000.91
2023-05-23T07:02:22.945Z,68998.25
2023-05-23T07:04:50.768Z,68980.19
2023-05-23T07:07:33.702Z,68990.44
2023-05-23T07:10:00.918Z,68962.94
2023-05-23T07:12:28.103Z,68966.94
2023-05-23T07:15:03.026Z,68966.19
2023-05-23T07:17:32.784Z,68957.25
2023-05-23T07:20:01.533Z,68957.25
2023-05-23T07:22:29.534Z,68954.78
2023-05-23T07:24:57.648Z,68943.22
2023-05-23T07:27:29.992Z,68913.97
2023-05-23T07:29:57.638Z,68911.16
2023-05-23T07:32:24.890Z,68925.56
2023-05-23T07:34:53.360Z,68959.34
2023-05-23T07:37:20.503Z,68981.94
2023-05-23T07:39:47.662Z,68995.00
2023-05-23T07:42:14.900Z,69003.94
2023-05-23T07:44:42.606Z,69027.28
2023-05-23T07:47:10.869Z,69046.28
2023-05-23T07:49:38.042Z,69049.31
2023-05-23T07:52:07.056Z,69052.75
2023-05-23T07:54:35.476Z,69045.13
2023-05-23T07:57:04.116Z,69054.47
2023-05-23T07:59:31.731Z,69062.81
2023-05-23T08:01:59.616Z,69058.22
2023-05-23T08:04:29.114Z,69058.47
2023-05-23T08:09:30.854Z,69044.19
2023-05-23T08:11:58.668Z,69090.75
2023-05-23T08:14:34.553Z,69087.69
2023-05-23T08:17:17.507Z,69101.19
2023-05-23T08:19:51.989Z,69101.34
2023-05-23T08:22:19.654Z,69104.59
2023-05-23T08:24:46.917Z,69110.88
2023-05-23T08:27:14.604Z,69106.31
2023-05-23T08:29:42.935Z,69127.00
2023-05-23T08:32:10.454Z,69118.47
2023-05-23T08:34:37.650Z,69099.47
2023-05-23T08:37:04.872Z,69068.16
2023-05-23T08:39:32.197Z,69085.97
2023-05-23T08:42:18.421Z,69120.94
2023-05-23T08:44:51.310Z,69151.31
2023-05-23T08:47:19.962Z,69169.75
2023-05-23T08:49:55.077Z,69132.56
2023-05-23T08:52:25.469Z,69125.13
2023-05-23T08:54:55.386Z,69133.50
2023-05-23T08:57:23.087Z,69137.66
2023-05-23T08:59:56.414Z,69160.06
2023-05-23T09:02:24.941Z,69150.94
2023-05-23T09:04:56.262Z,69134.25
2023-05-23T09:07:26.025Z,69093.94
2023-05-23T09:09:53.816Z,69069.47
2023-05-23T09:12:23.769Z,69054.06
2023-05-23T09:14:51.095Z,69025.00
2023-05-23T09:17:20.657Z,69022.94
2023-05-23T09:19:48.468Z,69025.78
2023-05-23T09:22:28.187Z,69031.66
2023-05-23T09:25:05.510Z,69023.69
2023-05-23T09:27:33.020Z,68998.81
2023-05-23T09:30:05.832Z,68987.63
2023-05-23T09:32:33.370Z,68979.44
2023-05-23T09:35:04.215Z,68977.75
2023-05-23T09:37:32.956Z,68987.44
2023-05-23T09:40:01.817Z,68999.56
2023-05-23T09:42:36.454Z,68991.41
2023-05-23T09:45:04.944Z,68971.25
2023-05-23T09:47:32.541Z,68965.06
2023-05-23T09:49:59.724Z,68955.94
2023-05-23T09:52:27.547Z,68960.31
2023-05-23T09:54:54.781Z,68966.38
2023-05-23T09:57:27.527Z,68982.88
2023-05-23T10:00:01.185Z,68966.94
2023-05-23T10:02:59.738Z,68953.66
2023-05-23T10:05:42.417Z,68939.59
2023-05-23T10:08:14.259Z,68926.13
2023-05-23T10:10:56.723Z,68922.16
2023-05-23T10:13:32.501Z,68921.94
2023-05-23T10:16:15.077Z,68931.06
2023-05-23T10:18:47.707Z,68958.78
2023-05-23T10:21:25.854Z,68960.72
2023-05-23T10:23:53.678Z,68961.22
2023-05-23T10:26:22.054Z,68985.72
2023-05-23T10:28:49.996Z,69000.91
2023-05-23T10:31:17.863Z,69078.00
2023-05-23T10:34:01.263Z,69081.41
2023-05-23T10:36:37.364Z,69042.09
2023-05-23T10:39:26.083Z,69027.50
2023-05-23T10:41:59.001Z,69002.41
2023-05-23T10:44:31.133Z,68998.81
2023-05-23T10:47:03.210Z,68981.56
2023-05-23T10:49:47.626Z,68955.38
2023-05-23T10:52:17.553Z,68946.44
2023-05-23T10:54:48.594Z,68962.75
2023-05-23T10:57:34.072Z,68988.00
2023-05-23T11:00:01.781Z,68987.06
2023-05-23T11:02:29.498Z,68998.25
2023-05-23T11:05:18.752Z,69042.47
2023-05-23T11:07:46.357Z,69093.03
2023-05-23T11:10:19.247Z,69086.53
2023-05-23T11:12:46.391Z,69097.59
2023-05-23T11:15:23.672Z,69103.06
2023-05-23T11:17:52.454Z,69065.47
2023-05-23T11:20:27.559Z,69075.53
2023-05-23T11:23:05.498Z,69047.59
2023-05-23T11:25:49.811Z,69031.84
2023-05-23T11:28:22.491Z,69028.44
2023-05-23T11:30:51.242Z,69016.84
2023-05-23T11:33:20.913Z,68999.38
2023-05-23T11:35:49.704Z,68979.09
2023-05-23T11:38:17.446Z,68959.91
2023-05-23T11:40:46.374Z,68960.31
2023-05-23T11:43:19.874Z,68988.00
2023-05-23T11:45:47.478Z,68991.78
2023-05-23T11:48:18.263Z,69003.53
2023-05-23T11:50:54.998Z,69009.97
2023-05-23T11:53:25.320Z,69017.03
2023-05-23T11:56:01.911Z,69003.38
2023-05-23T11:58:33.170Z,68982.31
2023-05-23T12:01:08.444Z,68965.06
2023-05-23T12:03:52.008Z,68953.06
2023-05-23T12:06:25.637Z,68967.72
2023-05-23T12:08:52.970Z,68974.16
2023-05-23T12:11:20.173Z,68992.38
2023-05-23T12:13:47.338Z,69013.25
2023-05-23T12:16:15.858Z,68982.47
2023-05-23T12:18:43.550Z,68966.38
2023-05-23T12:21:11.359Z,68967.31
2023-05-23T12:23:39.759Z,68951.94
2023-05-23T12:26:07.895Z,68920.78
2023-05-23T12:28:45.082Z,68901.06
2023-05-23T12:31:16.042Z,68873.75
2023-05-23T12:33:48.205Z,68862.59
2023-05-23T12:36:23.058Z,68866.00
2023-05-23T12:38:53.773Z,68872.44
2023-05-23T12:41:22.290Z,68878.13
2023-05-23T12:43:54.915Z,68887.44
2023-05-23T12:46:23.904Z,68886.09
2023-05-23T12:48:51.854Z,68896.91
2023-05-23T12:51:19.378Z,68902.41
2023-05-23T12:53:46.863Z,68898.78
2023-05-23T12:56:14.500Z,68892.53
2023-05-23T12:58:41.948Z,68888.38
2023-05-23T13:01:09.253Z,68891.59
2023-05-23T13:03:36.641Z,68895.19
2023-05-23T13:06:04.092Z,68897.28
2023-05-23T13:08:31.271Z,68901.28
2023-05-23T13:10:59.319Z,68889.50
2023-05-23T13:13:27.032Z,68882.50
2023-05-23T13:15:54.461Z,68854.63
2023-05-23T13:18:21.748Z,68836.03
2023-05-23T13:20:49.053Z,68842.28
2023-05-23T13:23:16.563Z,68852.16
2023-05-23T13:25:54.350Z,68840.03
2023-05-23T13:28:21.960Z,68849.50
2023-05-23T13:30:49.557Z,68854.41
2023-05-23T13:33:17.093Z,68873.56
2023-05-23T13:35:47.952Z,68884.97
2023-05-23T13:38:17.500Z,68911.34
2023-05-23T13:40:50.494Z,68906.00
2023-05-23T13:43:18.602Z,68880.78
2023-05-23T13:45:47.590Z,68862.59
2023-05-23T13:48:17.354Z,68848.53
2023-05-23T13:50:45.306Z,68844.72
2023-05-23T13:53:15.103Z,68852.34
2023-05-23T13:55:51.813Z,68858.03
2023-05-23T13:58:19.007Z,68864.84
2023-05-23T14:00:55.339Z,68876.25
2023-05-23T14:03:22.651Z,68886.66
2023-05-23T14:05:49.980Z,68901.63
2023-05-23T14:08:18.921Z,68901.63
2023-05-23T14:10:46.051Z,68910.38
2023-05-23T14:13:17.223Z,68913.41
2023-05-23T14:15:54.090Z,68908.84
2023-05-23T14:18:21.226Z,68899.75
2023-05-23T14:20:48.304Z,68892.16
2023-05-23T14:23:20.524Z,68870.34
2023-05-23T14:25:47.602Z,68859.34
2023-05-23T14:28:15.009Z,68844.00
2023-05-23T14:30:42.252Z,68830.72
2023-05-23T14:33:11.029Z,68805.13
2023-05-23T14:35:39.825Z,68784.44
2023-05-23T14:38:10.167Z,68760.19
2023-05-23T14:40:39.888Z,68734.22
2023-05-23T14:43:10.223Z,68725.72
2023-05-23T14:45:40.683Z,68716.59
2023-05-23T14:48:09.850Z,68729.50
2023-05-23T14:50:46.449Z,68743.53
2023-05-23T14:53:17.209Z,68744.66
2023-05-23T14:55:44.748Z,68737.06
2023-05-23T14:58:11.942Z,68729.09
2023-05-23T15:00:40.936Z,68719.47
2023-05-23T15:03:08.904Z,68714.34
2023-05-23T15:05:48.965Z,68709.44
2023-05-23T15:08:28.963Z,68692.00
2023-05-23T15:10:56.045Z,68686.31
2023-05-23T15:13:24.330Z,68682.34
2023-05-23T15:15:52.043Z,68681.75
2023-05-23T15:18:38.842Z,68688.19
2023-05-23T15:21:07.674Z,68688.56
2023-05-23T15:23:34.830Z,68686.50
2023-05-23T15:26:05.065Z,68693.31
2023-05-23T15:28:33.740Z,68682.50
2023-05-23T15:31:06.660Z,68680.06
2023-05-23T15:33:36.900Z,68663.19
2023-05-23T15:36:04.332Z,68650.69
2023-05-23T15:38:32.848Z,68636.88
2023-05-23T15:41:00.332Z,68627.94
2023-05-23T15:43:27.461Z,68632.31
2023-05-23T15:45:55.058Z,68637.59
2023-05-23T15:48:28.206Z,68639.69
2023-05-23T15:50:55.324Z,68633.84
2023-05-23T15:53:22.467Z,68624.34
2023-05-23T15:55:50.956Z,68613.38
2023-05-23T15:58:18.184Z,68591.03
2023-05-23T16:00:51.196Z,68574.00
2023-05-23T16:03:19.003Z,68570.22
2023-05-23T16:05:46.264Z,68558.50
2023-05-23T16:08:13.473Z,68548.84
2023-05-23T16:10:40.883Z,68542.03
2023-05-23T16:13:09.188Z,68535.22
2023-05-23T16:15:37.578Z,68523.28
2023-05-23T16:18:05.034Z,68521.03
2023-05-23T16:20:34.914Z,68520.09
2023-05-23T16:23:02.276Z,68508.91
2023-05-23T16:25:29.871Z,68509.28
2023-05-23T16:27:57.487Z,68506.25
2023-05-23T16:30:28.058Z,68502.09
2023-05-23T16:32:55.378Z,68503.97
2023-05-23T16:35:28.759Z,68500.56
2023-05-23T16:37:56.449Z,68498.84
2023-05-23T16:40:23.840Z,68493.00
2023-05-23T16:42:51.052Z,68493.94
2023-05-23T16:45:18.629Z,68493.78
2023-05-23T16:47:45.912Z,68498.31
2023-05-23T16:50:13.095Z,68492.25
2023-05-23T16:52:40.505Z,68491.88
2023-05-23T16:55:07.709Z,68488.28
2023-05-23T16:57:34.822Z,68485.44
2023-05-23T17:00:01.943Z,68466.53
2023-05-23T17:02:29.082Z,68460.84
2023-05-23T17:04:56.465Z,68450.63
2023-05-23T17:07:23.591Z,68437.00
2023-05-23T17:09:50.729Z,68440.25
2023-05-23T17:12:17.847Z,68433.03
2023-05-23T17:14:44.936Z,68428.91
2023-05-23T17:17:12.007Z,68426.06
2023-05-23T17:19:39.273Z,68420.75
2023-05-23T17:22:07.795Z,68424.94
2023-05-23T17:24:35.232Z,68424.72
2023-05-23T17:27:04.534Z,68410.56
2023-05-23T17:29:31.937Z,68395.81
2023-05-23T17:31:59.315Z,68383.16
2023-05-23T17:34:26.422Z,68383.72
2023-05-23T17:36:53.551Z,68368.97
2023-05-23T17:39:20.749Z,68375.41
2023-05-23T17:41:48.021Z,68370.09
2023-05-23T17:44:15.143Z,68372.56
2023-05-23T17:46:42.438Z,68358.59
2023-05-23T17:49:12.011Z,68354.63
2023-05-23T17:51:39.213Z,68349.13
2023-05-23T17:54:08.912Z,68346.88
2023-05-23T17:56:36.189Z,68346.47
2023-05-23T17:59:07.370Z,68354.03
2023-05-23T18:01:34.545Z,68352.91
2023-05-23T18:04:02.108Z,68347.81
2023-05-23T18:06:29.277Z,68338.56
2023-05-23T18:09:02.853Z,68340.44
2023-05-23T18:11:30.411Z,68335.91
2023-05-23T18:13:58.008Z,68333.63
2023-05-23T18:16:25.365Z,68324.16
2023-05-23T18:18:52.487Z,68319.06
2023-05-23T18:21:19.788Z,68318.31
2023-05-23T18:23:47.150Z,68315.28
2023-05-23T18:26:17.452Z,68318.50
2023-05-23T18:28:44.754Z,68319.06
2023-05-23T18:31:11.896Z,68316.22
2023-05-23T18:33:41.118Z,68312.25
2023-05-23T18:36:12.975Z,68309.44
2023-05-23T18:38:42.982Z,68302.81
2023-05-23T18:41:13.919Z,68305.84
2023-05-23T18:43:42.111Z,68299.44
2023-05-23T18:46:09.699Z,68294.13
2023-05-23T18:48:39.312Z,68295.63
2023-05-23T18:51:09.280Z,68284.69
2023-05-23T18:53:37.961Z,68286.22
2023-05-23T18:56:08.769Z,68285.44
2023-05-23T18:58:37.118Z,68282.22
2023-05-23T19:01:04.384Z,68283.75
2023-05-23T19:03:42.843Z,68281.47
2023-05-23T19:06:12.589Z,68277.13
2023-05-23T19:08:41.411Z,68274.88
2023-05-23T19:11:10.848Z,68278.44
2023-05-23T19:13:45.487Z,68272.59
2023-05-23T19:16:13.753Z,68266.56
2023-05-23T19:18:40.956Z,68271.47
2023-05-23T19:21:08.532Z,68261.06
2023-05-23T19:23:37.739Z,68260.69
2023-05-23T19:26:13.862Z,68256.72
2023-05-23T19:28:44.993Z,68253.34
2023-05-23T19:31:15.256Z,68248.81
2023-05-23T19:33:42.710Z,68251.44
2023-05-23T19:36:09.859Z,68244.84
2023-05-23T19:38:37.392Z,68241.25
2023-05-23T19:41:05.329Z,68240.09
2023-05-23T19:43:32.819Z,68231.25
2023-05-23T19:46:00.241Z,68233.13
2023-05-23T19:48:27.545Z,68237.84
2023-05-23T19:50:55.293Z,68235.22
2023-05-23T19:53:23.012Z,68239.38
2023-05-23T19:55:50.480Z,68233.88
2023-05-23T19:58:19.773Z,68230.47
2023-05-23T20:00:46.900Z,68224.63
2023-05-23T20:03:17.590Z,68227.09
2023-05-23T20:05:45.929Z,68232.00
2023-05-23T20:08:15.378Z,68226.72
2023-05-23T20:10:44.873Z,68233.13
2023-05-23T20:13:14.652Z,68221.44
2023-05-23T20:15:42.552Z,68228.41
2023-05-23T20:18:09.809Z,68227.47
2023-05-23T20:20:36.959Z,68232.38
2023-05-23T20:23:07.494Z,68234.09
2023-05-23T20:25:35.087Z,68236.34
2023-05-23T20:28:02.301Z,68238.78
2023-05-23T20:30:29.468Z,68247.47
2023-05-23T20:32:56.871Z,68239.38
2023-05-23T20:35:24.163Z,68246.72
2023-05-23T20:37:51.660Z,68246.72
2023-05-23T20:40:19.373Z,68246.34
2023-05-23T20:42:46.586Z,68239.72
2023-05-23T20:45:13.934Z,68237.09
2023-05-23T20:47:42.150Z,68238.06
2023-05-23T20:50:10.672Z,68234.09
2023-05-23T20:52:39.476Z,68234.09
2023-05-23T20:55:07.555Z,68237.84
2023-05-23T20:57:37.772Z,68233.50
2023-05-23T21:00:12.606Z,68230.69
2023-05-23T21:02:40.957Z,68230.13
2023-05-23T21:05:09.631Z,68232.75
2023-05-23T21:07:37.050Z,68225.78
2023-05-23T21:10:04.663Z,68225.94
2023-05-23T21:12:32.086Z,68227.28
2023-05-23T21:14:59.301Z,68217.47
2023-05-23T21:17:26.523Z,68224.47
2023-05-23T21:19:53.761Z,68220.50
2023-05-23T21:22:21.009Z,68218.41
2023-05-23T21:24:48.353Z,68218.41
2023-05-23T21:27:15.601Z,68221.63
2023-05-23T21:29:43.110Z,68225.00
2023-05-23T21:32:10.285Z,68215.38
2023-05-23T21:34:37.363Z,68216.88
2023-05-23T21:37:04.647Z,68215.94
2023-05-23T21:39:47.029Z,68218.03
2023-05-23T21:42:18.841Z,68211.03
2023-05-23T21:44:46.205Z,68213.69
2023-05-23T21:47:13.384Z,68204.44
2023-05-23T21:49:40.809Z,68208.22
2023-05-23T21:52:07.948Z,68205.38
2023-05-23T21:54:35.178Z,68205.75
2023-05-23T21:57:02.369Z,68200.84
2023-05-23T21:59:29.516Z,68201.25
2023-05-23T22:01:56.722Z,68202.34
2023-05-23T22:04:23.962Z,68197.44
2023-05-23T22:06:51.984Z,68194.06
2023-05-23T22:09:19.285Z,68192.72
2023-05-23T22:11:46.515Z,68188.22
2023-05-23T22:14:13.605Z,68188.97
2023-05-23T22:16:41.108Z,68188.22
2023-05-23T22:19:10.349Z,68187.44
2023-05-23T22:21:37.898Z,68180.28
2023-05-23T22:24:05.374Z,68177.06
2023-05-23T22:26:32.544Z,68181.22
2023-05-23T22:28:59.610Z,68174.63
2023-05-23T22:31:28.766Z,68177.81
2023-05-23T22:33:56.454Z,68171.22
2023-05-23T22:36:23.577Z,68168.41
2023-05-23T22:38:50.828Z,68168.19
2023-05-23T22:41:18.245Z,68166.13
2023-05-23T22:43:45.685Z,68165.00
2023-05-23T22:46:12.858Z,68163.28
2023-05-23T22:48:39.958Z,68163.09
2023-05-23T22:51:08.202Z,68159.13
2023-05-23T22:53:35.357Z,68153.09
2023-05-23T22:56:02.797Z,68155.94
2023-05-23T22:58:29.958Z,68154.22
2023-05-23T23:00:57.054Z,68154.22
2023-05-23T23:03:24.278Z,68150.25
2023-05-23T23:05:51.483Z,68157.81
2023-05-23T23:08:19.502Z,68156.31
2023-05-23T23:10:46.802Z,68145.19
2023-05-23T23:13:14.458Z,68140.09
2023-05-23T23:15:42.981Z,68133.84
2023-05-23T23:18:13.764Z,68142.72
2023-05-23T23:20:41.650Z,68139.31
2023-05-23T23:23:09.565Z,68131.94
2023-05-23T23:25:37.090Z,68124.78
2023-05-23T23:28:04.410Z,68126.28
2023-05-23T23:30:31.939Z,68115.91
2023-05-23T23:32:59.143Z,68116.84
2023-05-23T23:35:26.445Z,68112.34
2023-05-23T23:37:53.669Z,68115.53
2023-05-23T23:40:20.943Z,68109.69
2023-05-23T23:42:48.609Z,68106.28
2023-05-23T23:45:16.228Z,68103.84
2023-05-23T23:47:43.698Z,68106.47
2023-05-23T23:50:13.490Z,68101.75
2023-05-23T23:52:44.414Z,68105.34
2023-05-23T23:55:11.505Z,68087.44
2023-05-23T23:57:38.580Z,68088.75
